| Date | Time | Temp. (oF) | Dew Point (oF) | Rel. Hum. (%) | Press. (in.) | Wind Dir. | Wind Speed (mph) | Hourly Rainfall (in.) |
|
|---|---|---|---|---|---|---|---|---|---|
| 1 | 04/28 | 00:00 | 50 | 42 | 76 | 30.03 | WSW | 1 | 0.00 |
| 2 | 04/27 | 23:00 | 53 | 44 | 73 | 30.03 | SW | 2 | 0.00 |
| 3 | 04/27 | 22:00 | 56 | 43 | 64 | 30.02 | WSW | 0 | 0.00 |
| 4 | 04/27 | 21:00 | 61 | 39 | 45 | 30.01 | WSW | 1 | 0.00 |
| 5 | 04/27 | 20:00 | 66 | 40 | 40 | 29.98 | W | 3 | 0.00 |
| 6 | 04/27 | 19:00 | 68 | 38 | 34 | 29.96 | WNW | 2 | 0.00 |
| 7 | 04/27 | 18:00 | 69 | 36 | 31 | 29.95 | W | 5 | 0.00 |
| 8 | 04/27 | 17:00 | 69 | 39 | 35 | 29.94 | WNW | 4 | 0.00 |
| 9 | 04/27 | 16:00 | 68 | 37 | 33 | 29.95 | SW | 5 | 0.00 |
| 10 | 04/27 | 15:00 | 67 | 38 | 35 | 29.97 | NNW | 9 | 0.00 |
| 11 | 04/27 | 14:00 | 66 | 40 | 40 | 29.98 | NNW | 11 | 0.00 |
| 12 | 04/27 | 13:00 | 64 | 39 | 41 | 29.98 | NNW | 8 | 0.00 |
| 13 | 04/27 | 12:00 | 63 | 41 | 45 | 29.99 | NW | 10 | 0.00 |
| 14 | 04/27 | 11:00 | 60 | 42 | 53 | 29.99 | NW | 6 | 0.00 |
| 15 | 04/27 | 10:00 | 58 | 44 | 60 | 29.99 | NW | 7 | 0.00 |
| 16 | 04/27 | 09:00 | 55 | 45 | 70 | 29.98 | NW | 7 | 0.00 |
| 17 | 04/27 | 08:00 | 52 | 48 | 88 | 29.97 | NW | 3 | 0.00 |
| 18 | 04/27 | 07:00 | 49 | 49 | 100 | 29.93 | W | 2 | 0.00 |
| 19 | 04/27 | 06:00 | 49 | 48 | 99 | 29.90 | WNW | 4 | 0.00 |
| 20 | 04/27 | 05:00 | 50 | 49 | 99 | 29.86 | WNW | 1 | 0.00 |
| 21 | 04/27 | 04:00 | 52 | 51 | 99 | 29.83 | WNW | 2 | 0.00 |
| 22 | 04/27 | 03:00 | 53 | 52 | 99 | 29.82 | NNW | 5 | 0.00 |
| 23 | 04/27 | 02:00 | 55 | 54 | 97 | 29.82 | NW | 2 | 0.00 |
| 24 | 04/27 | 01:00 | 56 | 55 | 99 | 29.81 | NNW | 4 | 0.00 |